Time;durP1;ratioP1;P1;durP2;ratioP2;P2;SDS_P1;SDS_P2;PMS_P1;PMS_P2;Temp;Humidity;BMP_temperature;BMP_pressure;BME280_temperature;BME280_humidity;BME280_pressure;Samples;Min_cycle;Max_cycle;Signal;HPM_P1;HPM_P2
2023/01/10 00:02:20;;;;;;;0.50;0.50;;;;;;;4.42;100.00;95900.25;4950938;28;102334;-66
2023/01/10 00:04:48;;;;;;;0.60;0.60;;;;;;;4.44;100.00;95895.56;4966825;28;104417;-66
2023/01/10 00:07:15;;;;;;;0.57;0.57;;;;;;;4.43;100.00;95902.63;4933861;28;106065;-66
2023/01/10 00:09:42;;;;;;;1.47;0.90;;;;;;;4.40;100.00;95899.66;4950181;28;101970;-66
2023/01/10 00:14:55;;;;;;;1.60;0.80;;;;;;;4.36;100.00;95898.53;4951243;28;103036;-66
2023/01/10 00:17:22;;;;;;;0.80;0.80;;;;;;;4.35;100.00;95907.41;4966604;28;101900;-66
2023/01/10 00:19:49;;;;;;;0.80;0.80;;;;;;;4.34;100.00;95911.06;4966798;28;103976;-66
2023/01/10 00:22:23;;;;;;;0.90;0.90;;;;;;;4.33;100.00;95912.91;4954356;28;102836;-66
2023/01/10 00:24:52;;;;;;;0.80;0.80;;;;;;;4.35;100.00;95912.69;4950221;28;105582;-66
2023/01/10 00:27:22;;;;;;;1.03;0.80;;;;;;;4.32;100.00;95921.03;4965863;28;104727;-66
2023/01/10 00:29:51;;;;;;;0.77;0.70;;;;;;;4.28;100.00;95925.13;4950135;28;101842;-66
2023/01/10 00:32:18;;;;;;;1.50;0.80;;;;;;;4.27;100.00;95923.53;4966594;28;105602;-66
2023/01/10 00:34:46;;;;;;;2.13;0.70;;;;;;;4.28;100.00;95928.56;4948829;28;105636;-66
2023/01/10 00:37:13;;;;;;;0.60;0.60;;;;;;;4.27;100.00;95924.31;4949990;28;102099;-66
2023/01/10 00:39:40;;;;;;;1.13;0.70;;;;;;;4.32;100.00;95934.19;4950176;28;105514;-66
2023/01/10 00:44:59;;;;;;;0.80;0.80;;;;;;;4.27;100.00;95931.44;4953616;28;101743;-66
2023/01/10 00:47:27;;;;;;;0.70;0.70;;;;;;;4.27;100.00;95934.84;4949559;28;105905;-66
2023/01/10 00:49:54;;;;;;;0.80;0.70;;;;;;;4.27;100.00;95944.59;4949865;28;101888;-66
2023/01/10 00:52:21;;;;;;;0.60;0.60;;;;;;;4.25;100.00;95944.00;4949552;28;105879;-66
2023/01/10 00:54:48;;;;;;;0.70;0.70;;;;;;;4.29;100.00;95945.16;4949476;28;105750;-66
2023/01/10 00:57:15;;;;;;;0.77;0.77;;;;;;;4.30;100.00;95949.38;4950159;28;101920;-66
2023/01/10 00:59:44;;;;;;;0.90;0.70;;;;;;;4.33;100.00;95959.47;4951450;28;102497;-66
2023/01/10 01:02:13;;;;;;;0.60;0.60;;;;;;;4.33;100.00;95951.59;4948966;28;104451;-66
2023/01/10 01:04:40;;;;;;;0.90;0.90;;;;;;;4.35;100.00;95965.31;4951240;28;101781;-66
2023/01/10 01:07:07;;;;;;;0.80;0.80;;;;;;;4.37;100.00;95966.69;4952444;28;105749;-66
2023/01/10 01:10:25;;;;;;;1.30;1.17;;;;;;;4.39;100.00;95966.50;4949570;28;101893;-66
2023/01/10 01:12:22;;;;;;;1.50;1.40;;;;;;;4.42;100.00;95976.59;4949867;28;106992;-66
2023/01/10 01:14:49;;;;;;;1.77;1.40;;;;;;;4.44;100.00;95982.41;4949402;28;105495;-66
2023/01/10 01:17:18;;;;;;;3.30;1.13;;;;;;;4.46;100.00;95986.44;4949985;28;102269;-66
2023/01/10 01:19:45;;;;;;;1.30;0.93;;;;;;;4.45;100.00;95991.91;4949672;28;105680;-66
2023/01/10 01:22:13;;;;;;;3.27;1.30;;;;;;;4.43;100.00;95994.78;4948784;28;104648;-66
2023/01/10 01:24:41;;;;;;;1.00;1.00;;;;;;;4.43;100.00;96001.88;4949982;28;101811;-66
2023/01/10 01:27:08;;;;;;;1.57;1.00;;;;;;;4.44;100.00;96000.84;4949606;28;105439;-66
2023/01/10 01:29:36;;;;;;;0.80;0.80;;;;;;;4.45;100.00;96002.44;4952529;28;105501;-66
2023/01/10 01:32:03;;;;;;;1.80;1.00;;;;;;;4.43;100.00;96015.03;4949469;28;105527;-66
2023/01/10 01:34:32;;;;;;;0.80;0.80;;;;;;;4.47;100.00;96010.94;4949202;28;105439;-66
2023/01/10 01:37:00;;;;;;;1.30;1.07;;;;;;;4.43;100.00;96023.72;4952853;28;102292;-66
2023/01/10 01:39:27;;;;;;;0.70;0.70;;;;;;;4.44;100.00;96022.72;4953361;28;103225;-66
2023/01/10 01:41:57;;;;;;;0.80;0.80;;;;;;;4.43;100.00;96036.88;4954069;28;103168;-66
2023/01/10 01:44:29;;;;;;;0.80;0.80;;;;;;;4.43;100.00;96029.00;4952995;28;102046;-66
2023/01/10 01:47:04;;;;;;;0.97;0.97;;;;;;;4.44;100.00;96042.97;4952527;28;105318;-66
2023/01/10 01:49:37;;;;;;;1.30;1.10;;;;;;;4.41;100.00;96038.94;4955825;28;104615;-66
2023/01/10 01:52:07;;;;;;;0.70;0.70;;;;;;;4.43;100.00;96046.63;4952671;28;104142;-66
2023/01/10 01:54:36;;;;;;;0.80;0.80;;;;;;;4.42;100.00;96050.28;4953820;28;102825;-66
2023/01/10 01:57:07;;;;;;;1.17;0.90;;;;;;;4.39;100.00;96055.97;4968839;28;102015;-66
2023/01/10 01:59:38;;;;;;;0.73;0.73;;;;;;;4.40;100.00;96061.03;4952890;28;105603;-66
2023/01/10 02:02:11;;;;;;;1.00;0.90;;;;;;;4.38;100.00;96063.09;4953124;28;103111;-66
2023/01/10 02:04:46;;;;;;;0.70;0.70;;;;;;;4.37;100.00;96064.09;4952365;28;102067;-66
2023/01/10 02:07:14;;;;;;;1.27;0.93;;;;;;;4.37;100.00;96073.84;4952462;28;105647;-66
2023/01/10 02:09:47;;;;;;;1.63;0.80;;;;;;;4.39;100.00;96066.50;4951702;28;105877;-66
2023/01/10 02:12:15;;;;;;;0.80;0.80;;;;;;;4.37;100.00;96071.22;4957147;28;101735;-66
2023/01/10 02:14:45;;;;;;;0.70;0.70;;;;;;;4.40;100.00;96062.84;4952441;28;104417;-66
2023/01/10 02:17:13;;;;;;;0.90;0.90;;;;;;;4.37;100.00;96063.31;4952283;28;101981;-66
2023/01/10 02:19:51;;;;;;;0.80;0.80;;;;;;;4.36;100.00;96067.75;4953667;28;104935;-66
2023/01/10 02:22:59;;;;;;;0.70;0.70;;;;;;;4.37;100.00;96073.84;4952429;28;105674;-66
2023/01/10 02:26:08;;;;;;;0.80;0.73;;;;;;;4.38;100.00;96080.72;4953841;28;101918;-66
2023/01/10 02:29:13;;;;;;;1.43;0.90;;;;;;;4.34;100.00;96087.41;4952462;28;105226;-66
2023/01/10 02:32:17;;;;;;;0.73;0.73;;;;;;;4.33;100.00;96088.44;4953023;28;103217;-66
2023/01/10 02:34:59;;;;;;;0.80;0.80;;;;;;;4.31;100.00;96090.50;4949702;28;101911;-66
2023/01/10 02:37:35;;;;;;;1.00;1.00;;;;;;;4.30;100.00;96088.88;4954447;28;105351;-66
2023/01/10 02:40:08;;;;;;;0.97;0.97;;;;;;;4.30;100.00;96094.13;4952347;28;102008;-66
2023/01/10 02:42:44;;;;;;;0.60;0.60;;;;;;;4.29;100.00;96100.44;4951836;28;105237;-66
2023/01/10 02:45:17;;;;;;;0.97;0.90;;;;;;;4.24;100.00;96103.72;4951794;28;105614;-66
2023/01/10 02:47:44;;;;;;;0.80;0.80;;;;;;;4.21;100.00;96112.03;4950976;28;101808;-66
2023/01/10 02:50:30;;;;;;;0.70;0.70;;;;;;;4.25;100.00;96107.16;4968358;28;104410;-66
2023/01/10 02:53:02;;;;;;;0.80;0.80;;;;;;;4.19;100.00;96113.28;4950479;28;103935;-66
2023/01/10 02:55:41;;;;;;;0.90;0.90;;;;;;;4.13;100.00;96119.41;4953317;28;101733;-66
2023/01/10 02:58:22;;;;;;;0.90;0.90;;;;;;;4.15;100.00;96122.66;4951862;28;104829;-66
2023/01/10 03:00:58;;;;;;;1.23;1.00;;;;;;;4.17;100.00;96120.59;4955413;28;102540;-66
2023/01/10 03:03:36;;;;;;;1.40;1.10;;;;;;;4.11;100.00;96124.09;4951474;28;105575;-66
2023/01/10 03:06:18;;;;;;;1.03;1.03;;;;;;;4.10;100.00;96135.66;4951450;28;105722;-66
2023/01/10 03:08:56;;;;;;;1.97;1.00;;;;;;;4.09;100.00;96131.41;4952917;28;101978;-66
2023/01/10 03:11:39;;;;;;;0.97;0.97;;;;;;;4.05;100.00;96138.91;4968029;28;105125;-66
2023/01/10 03:14:13;;;;;;;1.27;0.80;;;;;;;4.00;100.00;96133.50;4950951;28;105732;-66
2023/01/10 03:16:46;;;;;;;0.80;0.80;;;;;;;3.98;100.00;96142.66;4951684;28;101798;-66
2023/01/10 03:19:17;;;;;;;0.80;0.80;;;;;;;3.99;100.00;96149.50;4951639;28;105295;-66
2023/01/10 03:21:47;;;;;;;0.67;0.67;;;;;;;3.97;100.00;96151.53;4950765;28;105826;-66
2023/01/10 03:24:19;;;;;;;0.80;0.80;;;;;;;3.95;100.00;96156.22;4954609;28;101900;-66
2023/01/10 03:26:52;;;;;;;1.23;0.90;;;;;;;3.95;100.00;96159.66;4967127;28;105165;-66
2023/01/10 03:29:25;;;;;;;2.67;1.00;;;;;;;3.92;100.00;96164.50;4953207;28;101725;-66
2023/01/10 03:31:56;;;;;;;0.60;0.60;;;;;;;3.94;100.00;96167.75;4951526;28;105546;-66
2023/01/10 03:34:25;;;;;;;0.90;0.90;;;;;;;3.93;100.00;96171.41;4950468;28;105515;-66
2023/01/10 03:37:04;;;;;;;1.57;1.07;;;;;;;3.93;100.00;96168.78;4951644;28;101985;-66
2023/01/10 03:39:40;;;;;;;1.00;0.83;;;;;;;3.91;100.00;96178.69;4967534;28;105267;-66
2023/01/10 03:42:14;;;;;;;1.20;1.10;;;;;;;3.95;100.00;96187.78;4967419;28;104328;-66
2023/01/10 03:44:49;;;;;;;1.87;0.90;;;;;;;3.96;100.00;96195.47;4951674;28;101719;-66
2023/01/10 03:47:23;;;;;;;1.20;1.10;;;;;;;3.96;100.00;96199.91;4953761;28;105532;-66
2023/01/10 03:49:55;;;;;;;2.07;1.30;;;;;;;3.95;100.00;96204.38;4952239;28;102118;-66
2023/01/10 03:52:25;;;;;;;0.80;0.80;;;;;;;3.97;100.00;96209.41;4950739;28;105892;-66
2023/01/10 03:54:53;;;;;;;0.80;0.80;;;;;;;3.99;100.00;96217.91;4950379;28;104919;-66
2023/01/10 03:57:24;;;;;;;1.47;0.90;;;;;;;4.03;100.00;96229.59;4950624;28;102041;-66
2023/01/10 03:59:55;;;;;;;2.60;1.10;;;;;;;4.02;100.00;96234.06;4951036;28;104314;-66
2023/01/10 04:02:22;;;;;;;2.40;0.93;;;;;;;4.05;100.00;96232.84;4950608;28;105361;-66
2023/01/10 04:04:50;;;;;;;2.40;1.07;;;;;;;4.07;100.00;96242.13;4950950;28;101905;-66
2023/01/10 04:07:17;;;;;;;1.07;0.80;;;;;;;4.07;100.00;96243.94;4953743;28;105333;-66
2023/01/10 04:09:46;;;;;;;1.17;1.00;;;;;;;4.09;100.00;96252.44;4950226;28;102378;-66
2023/01/10 04:12:14;;;;;;;2.37;1.10;;;;;;;4.10;100.00;96249.56;4951493;28;104059;-66
2023/01/10 04:14:44;;;;;;;1.10;0.90;;;;;;;4.14;100.00;96257.88;4950194;28;105674;-66
2023/01/10 04:17:11;;;;;;;1.20;1.10;;;;;;;4.15;100.00;96259.47;4950676;28;102108;-66
2023/01/10 04:19:39;;;;;;;4.97;1.50;;;;;;;4.20;100.00;96263.06;4950782;28;104977;-66
2023/01/10 04:22:06;;;;;;;1.93;1.20;;;;;;;4.24;100.00;96268.72;4950482;28;104017;-66
2023/01/10 04:24:35;;;;;;;1.17;0.97;;;;;;;4.24;100.00;96273.97;4951121;28;101952;-66
2023/01/10 04:27:04;;;;;;;1.10;0.90;;;;;;;4.25;100.00;96271.13;4951229;28;104248;-66
2023/01/10 04:29:32;;;;;;;1.03;0.87;;;;;;;4.24;100.00;96284.50;4954236;28;105664;-66
2023/01/10 04:32:01;;;;;;;1.60;0.90;;;;;;;4.25;100.00;96283.50;4951863;28;105360;-66
2023/01/10 04:34:29;;;;;;;0.83;0.83;;;;;;;4.25;100.00;96286.94;4951515;28;104512;-66
2023/01/10 04:36:56;;;;;;;1.20;1.00;;;;;;;4.27;100.00;96295.41;4950831;28;101864;-66
2023/01/10 04:39:24;;;;;;;1.10;1.00;;;;;;;4.26;100.00;96298.28;4950767;28;105777;-66
2023/01/10 04:41:51;;;;;;;1.13;1.10;;;;;;;4.24;100.00;96310.81;4950922;28;102773;-66
2023/01/10 04:44:20;;;;;;;0.80;0.80;;;;;;;4.22;100.00;96318.13;4949599;28;101874;-66
2023/01/10 04:46:47;;;;;;;0.80;0.80;;;;;;;4.22;100.00;96318.13;4950099;28;104360;-66
2023/01/10 04:49:14;;;;;;;0.70;0.70;;;;;;;4.21;100.00;96321.78;4965552;28;105810;-66
2023/01/10 04:51:42;;;;;;;1.63;0.90;;;;;;;4.18;100.00;96328.28;4952806;28;101802;-66
2023/01/10 04:54:09;;;;;;;0.87;0.87;;;;;;;4.16;100.00;96326.88;4948862;28;104199;-66
2023/01/10 04:56:37;;;;;;;1.57;1.00;;;;;;;4.14;100.00;96329.72;4949265;28;101776;-66
2023/01/10 04:59:05;;;;;;;1.10;1.03;;;;;;;4.13;100.00;96345.72;4949612;28;104790;-66
2023/01/10 05:01:37;;;;;;;1.13;1.13;;;;;;;4.07;100.00;96351.81;4948768;28;105733;-66
2023/01/10 05:04:07;;;;;;;0.90;0.90;;;;;;;4.00;100.00;96343.97;4949497;28;102320;-66
2023/01/10 05:06:34;;;;;;;1.10;1.10;;;;;;;4.02;100.00;96344.56;4950164;28;104988;-66
2023/01/10 05:09:01;;;;;;;1.03;1.00;;;;;;;3.98;100.00;96353.88;4949051;28;105528;-66
2023/01/10 05:11:28;;;;;;;1.20;1.10;;;;;;;3.96;100.00;96355.09;4953526;28;101935;-66
2023/01/10 05:13:56;;;;;;;0.90;0.90;;;;;;;3.97;100.00;96362.81;4956503;28;105306;-66
2023/01/10 05:16:24;;;;;;;0.90;0.90;;;;;;;3.96;100.00;96376.97;4953160;28;101863;-66
2023/01/10 05:18:52;;;;;;;1.20;1.10;;;;;;;3.95;100.00;96374.53;4953173;28;105757;-66
2023/01/10 05:21:20;;;;;;;1.10;1.10;;;;;;;3.94;100.00;96380.81;4951669;28;105402;-66
2023/01/10 05:23:47;;;;;;;1.03;1.03;;;;;;;3.93;100.00;96381.84;4952026;28;101993;-66
2023/01/10 05:26:19;;;;;;;1.10;0.93;;;;;;;3.90;100.00;96392.78;4952376;28;105358;-66
2023/01/10 05:28:47;;;;;;;1.30;1.20;;;;;;;3.93;100.00;96397.63;4951598;28;105484;-66
2023/01/10 05:31:16;;;;;;;1.33;1.20;;;;;;;3.91;100.00;96395.22;4952280;28;101936;-66
2023/01/10 05:33:48;;;;;;;1.13;1.00;;;;;;;3.91;100.00;96400.47;4952314;28;105588;-66
2023/01/10 05:36:17;;;;;;;1.37;1.10;;;;;;;3.93;100.00;96405.53;4954633;28;104323;-66
2023/01/10 05:38:45;;;;;;;1.43;1.33;;;;;;;3.92;100.00;96412.59;4952467;28;104506;-66
2023/01/10 05:41:13;;;;;;;1.73;1.30;;;;;;;3.92;100.00;96417.03;4951685;28;103914;-66
2023/01/10 05:43:41;;;;;;;1.33;1.17;;;;;;;3.89;100.00;96422.72;4951984;28;102028;-66
2023/01/10 05:46:09;;;;;;;1.40;1.30;;;;;;;3.91;100.00;96431.22;4952308;28;104085;-66
2023/01/10 05:48:36;;;;;;;1.57;1.50;;;;;;;3.84;100.00;96433.88;4951256;28;104929;-66
2023/01/10 05:51:03;;;;;;;2.00;1.90;;;;;;;3.82;100.00;96435.91;4951909;28;102247;-66
2023/01/10 05:53:32;;;;;;;1.93;1.77;;;;;;;3.76;100.00;96433.31;4951797;28;105170;-66
2023/01/10 05:56:02;;;;;;;2.23;2.00;;;;;;;3.72;100.00;96438.16;4951429;28;105778;-66
2023/01/10 05:58:30;;;;;;;1.90;1.80;;;;;;;3.72;100.00;96458.41;4954933;28;101913;-66
2023/01/10 06:00:58;;;;;;;1.80;1.70;;;;;;;3.70;100.00;96455.97;4951154;28;105426;-67
2023/01/10 06:03:26;;;;;;;2.13;1.93;;;;;;;3.65;100.00;96463.66;4951572;28;101946;-67
2023/01/10 06:05:53;;;;;;;1.70;1.60;;;;;;;3.65;100.00;96465.50;4951811;28;105659;-67
2023/01/10 06:08:21;;;;;;;2.10;2.00;;;;;;;3.60;100.00;96475.81;4967077;28;105588;-67
2023/01/10 06:10:50;;;;;;;1.77;1.67;;;;;;;3.55;100.00;96475.63;4952734;28;101848;-67
2023/01/10 06:13:18;;;;;;;2.00;1.80;;;;;;;3.54;100.00;96484.50;4952650;28;103496;-67
2023/01/10 06:15:45;;;;;;;2.20;2.10;;;;;;;3.55;100.00;96488.78;4952493;28;103237;-67
2023/01/10 06:18:13;;;;;;;2.47;2.27;;;;;;;3.55;100.00;96492.19;4956372;28;101856;-67
2023/01/10 06:20:40;;;;;;;2.17;2.07;;;;;;;3.58;100.00;96488.34;4950495;28;105590;-67
2023/01/10 06:23:09;;;;;;;2.40;2.20;;;;;;;3.60;100.00;96502.13;4951095;28;102134;-67
2023/01/10 06:25:39;;;;;;;2.60;2.40;;;;;;;3.61;100.00;96509.78;4951418;28;104463;-67
2023/01/10 06:28:08;;;;;;;2.20;2.10;;;;;;;3.60;100.00;96510.78;4950787;28;105844;-67
2023/01/10 06:30:35;;;;;;;2.63;2.43;;;;;;;3.52;100.00;96520.72;4952706;28;101829;-68
2023/01/10 06:33:03;;;;;;;2.70;2.50;;;;;;;3.55;100.00;96525.56;4951147;28;104133;-68
2023/01/10 06:35:31;;;;;;;2.80;2.60;;;;;;;3.62;100.00;96531.63;4950424;28;105580;-68
2023/01/10 06:37:58;;;;;;;4.73;3.47;;;;;;;3.66;100.00;96530.22;4950960;28;103201;-68
2023/01/10 06:40:26;;;;;;;4.70;3.90;;;;;;;3.65;100.00;96537.28;4953513;28;104321;-68
2023/01/10 06:42:54;;;;;;;5.07;3.40;;;;;;;3.75;100.00;96542.94;4950815;28;101928;-68
2023/01/10 06:45:22;;;;;;;3.97;3.53;;;;;;;3.77;100.00;96551.44;4950970;28;105387;-67
2023/01/10 06:47:49;;;;;;;3.37;3.10;;;;;;;3.76;100.00;96555.06;4950540;28;104644;-67
2023/01/10 06:50:17;;;;;;;3.90;3.20;;;;;;;3.76;100.00;96554.28;4950623;28;101971;-67
2023/01/10 06:52:44;;;;;;;4.47;3.50;;;;;;;3.71;100.00;96560.13;4950628;28;105318;-67
2023/01/10 06:55:11;;;;;;;3.37;3.07;;;;;;;3.76;100.00;96575.31;4950097;28;105444;-67
2023/01/10 06:57:38;;;;;;;3.40;3.20;;;;;;;3.73;100.00;96568.66;4950991;28;101961;-67
2023/01/10 07:00:09;;;;;;;3.83;3.43;;;;;;;3.74;100.00;96572.88;4967398;28;105200;-67
2023/01/10 07:02:38;;;;;;;3.80;3.50;;;;;;;3.77;100.00;96583.00;4953902;28;104564;-67
2023/01/10 07:05:06;;;;;;;3.00;2.70;;;;;;;3.74;100.00;96593.09;4950476;28;105570;-67
2023/01/10 07:07:33;;;;;;;3.63;2.70;;;;;;;3.73;100.00;96597.56;4950229;28;105303;-67
2023/01/10 07:10:00;;;;;;;4.13;2.97;;;;;;;3.71;100.00;96617.19;4966804;28;102403;-67
2023/01/10 07:12:28;;;;;;;2.93;2.70;;;;;;;3.76;100.00;96612.16;4967135;28;104785;-67
2023/01/10 07:14:55;;;;;;;3.17;2.90;;;;;;;3.76;100.00;96622.66;4950023;28;105971;-67
2023/01/10 07:17:23;;;;;;;3.60;2.70;;;;;;;3.78;100.00;96620.63;4950505;28;101969;-67
2023/01/10 07:19:52;;;;;;;2.83;2.50;;;;;;;3.83;100.00;96626.88;4951995;28;102806;-67
2023/01/10 07:22:20;;;;;;;2.30;2.10;;;;;;;3.84;100.00;96635.59;4949996;28;105484;-67
2023/01/10 07:24:47;;;;;;;2.10;1.90;;;;;;;3.88;100.00;96637.63;4953719;28;101881;-67
2023/01/10 07:27:14;;;;;;;2.40;1.90;;;;;;;3.91;100.00;96646.91;4949667;28;105747;-67
2023/01/10 07:29:41;;;;;;;3.17;2.50;;;;;;;3.88;100.00;96644.72;4950422;28;101968;-67
2023/01/10 07:32:08;;;;;;;2.40;2.20;;;;;;;3.92;100.00;96659.06;4949483;28;105662;-67
2023/01/10 07:34:35;;;;;;;5.23;4.07;;;;;;;3.86;100.00;96660.69;4949468;28;105459;-67
2023/01/10 07:37:04;;;;;;;3.00;2.80;;;;;;;3.84;100.00;96667.16;4950500;28;101863;-67
2023/01/10 07:39:31;;;;;;;3.23;2.90;;;;;;;3.83;100.00;96670.81;4966485;28;104050;-67
2023/01/10 07:42:00;;;;;;;2.83;2.60;;;;;;;3.82;100.00;96667.34;4951118;28;102989;-67
2023/01/10 07:44:27;;;;;;;2.30;2.10;;;;;;;3.78;100.00;96673.22;4950333;28;102104;-67
2023/01/10 07:46:54;;;;;;;2.07;1.93;;;;;;;3.71;100.00;96683.75;4954293;28;102552;-67
2023/01/10 07:49:21;;;;;;;2.00;1.87;;;;;;;3.73;100.00;96691.44;4950068;28;102380;-67
2023/01/10 07:51:49;;;;;;;2.40;2.30;;;;;;;3.73;100.00;96694.06;4965980;28;105674;-67
2023/01/10 07:54:17;;;;;;;2.00;1.90;;;;;;;3.72;100.00;96700.34;4965159;28;105651;-67
2023/01/10 07:56:46;;;;;;;2.33;2.13;;;;;;;3.70;100.00;96716.31;4966328;28;101795;-67
2023/01/10 07:59:13;;;;;;;2.23;2.10;;;;;;;3.75;100.00;96715.69;4950087;28;103988;-67
2023/01/10 08:01:40;;;;;;;2.67;2.47;;;;;;;3.75;100.00;96716.53;4949461;28;105279;-67
2023/01/10 08:04:07;;;;;;;2.50;2.30;;;;;;;3.77;100.00;96726.84;4950068;28;101994;-67
2023/01/10 08:06:34;;;;;;;2.33;2.13;;;;;;;3.77;100.00;96727.66;4951369;28;102630;-67
2023/01/10 08:09:03;;;;;;;2.40;2.20;;;;;;;3.79;100.00;96723.00;4952304;28;101879;-67
2023/01/10 08:11:32;;;;;;;2.63;2.43;;;;;;;3.82;100.00;96729.69;4949845;28;105409;-67
2023/01/10 08:13:59;;;;;;;3.03;2.83;;;;;;;3.83;100.00;96732.09;4965458;28;105243;-67
2023/01/10 08:16:26;;;;;;;3.27;2.97;;;;;;;3.82;100.00;96738.38;4949959;28;102024;-67
2023/01/10 08:18:54;;;;;;;3.07;2.87;;;;;;;3.83;100.00;96747.88;4965889;28;105460;-67
2023/01/10 08:21:21;;;;;;;3.37;3.10;;;;;;;3.87;100.00;96749.13;4965404;28;104018;-67
2023/01/10 08:23:50;;;;;;;3.27;2.97;;;;;;;3.86;100.00;96755.38;4949479;28;101883;-67
2023/01/10 08:26:17;;;;;;;3.50;3.00;;;;;;;3.86;100.00;96762.47;4949855;28;105236;-67
2023/01/10 08:28:46;;;;;;;2.93;2.73;;;;;;;3.85;100.00;96774.00;4953446;28;102832;-67
2023/01/10 08:31:13;;;;;;;2.17;2.07;;;;;;;3.84;100.00;96772.38;4949729;28;105227;-67
2023/01/10 08:33:40;;;;;;;2.83;2.63;;;;;;;3.76;100.00;96791.00;4948736;28;105599;-67
2023/01/10 08:36:15;;;;;;;2.67;2.47;;;;;;;3.75;100.00;96792.78;4949385;28;101802;-67
2023/01/10 08:38:42;;;;;;;3.00;2.57;;;;;;;3.75;100.00;96794.59;4949573;28;105041;-67
2023/01/10 08:41:10;;;;;;;2.60;2.40;;;;;;;3.65;100.00;96810.75;4948816;28;105480;-67
2023/01/10 08:43:38;;;;;;;2.77;2.57;;;;;;;3.63;100.00;96810.16;4966475;28;101863;-67
2023/01/10 08:46:07;;;;;;;2.80;2.60;;;;;;;3.61;100.00;96811.38;4953032;28;105237;-67
2023/01/10 08:48:34;;;;;;;3.20;2.90;;;;;;;3.63;100.00;96809.34;4952349;28;105656;-68
2023/01/10 08:51:06;;;;;;;3.17;2.77;;;;;;;3.66;100.00;96817.63;4956213;28;102068;-68
2023/01/10 08:53:34;;;;;;;3.43;2.60;;;;;;;3.69;100.00;96825.16;4951952;28;105953;-68
2023/01/10 08:56:01;;;;;;;3.43;2.93;;;;;;;3.73;100.00;96831.66;4952617;28;102048;-68
2023/01/10 08:58:28;;;;;;;2.83;2.63;;;;;;;3.76;100.00;96819.91;4952886;28;105245;-68
2023/01/10 09:00:55;;;;;;;2.90;2.70;;;;;;;3.82;100.00;96827.03;4952093;28;105727;-68
2023/01/10 09:03:24;;;;;;;3.10;2.90;;;;;;;3.84;100.00;96833.72;4953031;28;101953;-68
2023/01/10 09:05:52;;;;;;;2.90;2.70;;;;;;;3.89;100.00;96838.38;4969003;28;104084;-68
2023/01/10 09:08:19;;;;;;;3.23;2.93;;;;;;;3.91;100.00;96842.41;4951799;28;104142;-68
2023/01/10 09:10:47;;;;;;;2.63;2.43;;;;;;;3.96;100.00;96834.75;4952625;28;102003;-68
2023/01/10 09:13:14;;;;;;;3.10;2.43;;;;;;;3.99;100.00;96842.22;4955022;28;105533;-68
2023/01/10 09:15:42;;;;;;;2.97;2.77;;;;;;;4.03;100.00;96845.28;4952611;28;101932;-68
2023/01/10 09:18:13;;;;;;;3.70;2.77;;;;;;;4.12;100.00;96851.97;4952163;28;104184;-68
2023/01/10 09:20:42;;;;;;;5.70;4.80;;;;;;;4.14;100.00;96849.97;4951687;28;105828;-68
2023/01/10 09:23:16;;;;;;;5.13;3.93;;;;;;;4.20;100.00;96863.13;4952240;28;102081;-68
2023/01/10 09:25:43;;;;;;;5.40;4.00;;;;;;;4.29;100.00;96866.41;4952453;28;105479;-68
2023/01/10 09:28:10;;;;;;;6.40;5.13;;;;;;;4.31;100.00;96869.66;4951616;28;104290;-68
2023/01/10 09:30:38;;;;;;;6.33;4.87;;;;;;;4.38;100.00;96871.31;4952106;28;102217;-69
2023/01/10 09:33:06;;;;;;;4.50;3.10;;;;;;;4.35;100.00;96876.13;4951988;28;103999;-67
2023/01/10 09:35:37;;;;;;;6.07;4.33;;;;;;;4.43;100.00;96873.31;4954440;28;105896;-66
2023/01/10 09:38:07;;;;;;;6.77;4.83;;;;;;;4.44;100.00;96883.66;4952252;28;105739;-67
2023/01/10 09:40:55;;;;;;;4.43;2.90;;;;;;;4.44;100.00;96885.47;4951442;28;105899;-67
2023/01/10 09:43:30;;;;;;;3.53;2.97;;;;;;;4.46;100.00;96886.06;4952126;28;101788;-67
2023/01/10 09:46:04;;;;;;;3.80;3.37;;;;;;;4.49;100.00;96886.50;4951949;28;105919;-67
2023/01/10 09:48:41;;;;;;;4.53;3.07;;;;;;;4.52;100.00;96898.44;4951463;28;105517;-68
2023/01/10 09:51:25;;;;;;;3.93;3.13;;;;;;;4.56;100.00;96907.56;4951840;28;101837;-64
2023/01/10 09:54:00;;;;;;;3.57;2.60;;;;;;;4.51;100.00;96904.72;4953192;28;102794;-65
2023/01/10 09:56:30;;;;;;;3.83;2.60;;;;;;;4.50;100.00;96905.72;4950620;28;105690;-65
2023/01/10 09:58:59;;;;;;;4.30;2.93;;;;;;;4.52;100.00;96908.97;4955223;28;102569;-67
2023/01/10 10:01:30;;;;;;;4.43;3.00;;;;;;;4.54;100.00;96914.88;4951107;28;105749;-67
2023/01/10 10:04:05;;;;;;;4.43;2.77;;;;;;;4.55;100.00;96908.56;4951864;28;101861;-67
2023/01/10 10:06:33;;;;;;;4.53;3.00;;;;;;;4.58;100.00;96916.09;4951628;28;105444;-70
2023/01/10 10:09:04;;;;;;;3.83;2.50;;;;;;;4.54;100.00;96906.97;4950736;28;105397;-67
2023/01/10 10:12:05;;;;;;;6.33;3.07;;;;;;;4.58;100.00;96914.25;4952546;28;102209;-67
2023/01/10 10:14:47;;;;;;;5.77;2.50;;;;;;;4.59;100.00;96907.97;4937914;28;105485;-73
2023/01/10 10:17:31;;;;;;;3.80;2.83;;;;;;;4.60;100.00;96912.25;4950685;28;105700;-65
2023/01/10 10:20:13;;;;;;;3.90;2.20;;;;;;;4.55;100.00;96930.47;4954899;28;101831;-70
2023/01/10 10:22:49;;;;;;;2.20;2.00;;;;;;;4.50;100.00;96926.81;4950671;28;105550;-67
2023/01/10 10:25:34;;;;;;;4.07;2.10;;;;;;;4.47;100.00;96921.94;4951147;28;102051;-72
2023/01/10 10:28:18;;;;;;;4.23;1.90;;;;;;;4.51;100.00;96923.97;4951177;28;105462;-69
2023/01/10 10:30:55;;;;;;;5.40;2.37;;;;;;;4.50;100.00;96932.06;4950726;28;106216;-69
2023/01/10 10:33:35;;;;;;;5.17;2.47;;;;;;;4.51;100.00;96928.41;4951041;28;101835;-69
2023/01/10 10:36:05;;;;;;;8.17;5.00;;;;;;;4.53;100.00;96929.03;4950968;28;105500;-69
2023/01/10 10:38:37;;;;;;;5.13;2.80;;;;;;;4.52;100.00;96930.03;4950531;28;105791;-69
2023/01/10 10:41:16;;;;;;;4.37;2.27;;;;;;;4.51;100.00;96928.41;4951151;28;101870;-69
2023/01/10 10:43:46;;;;;;;5.33;2.30;;;;;;;4.56;100.00;96933.91;4953857;28;105630;-69
2023/01/10 10:46:17;;;;;;;3.53;2.30;;;;;;;4.57;100.00;96938.16;4951076;28;102247;-69
2023/01/10 10:48:53;;;;;;;5.40;2.90;;;;;;;4.60;100.00;96930.69;4950902;28;104107;-69
2023/01/10 10:51:26;;;;;;;4.37;2.97;;;;;;;4.62;100.00;96933.09;4950269;28;105898;-69
2023/01/10 10:53:54;;;;;;;4.40;2.20;;;;;;;4.58;100.00;96934.53;4950768;28;102172;-68
2023/01/10 10:56:26;;;;;;;6.70;4.53;;;;;;;4.61;100.00;96924.41;4952463;28;102442;-69
2023/01/10 10:58:56;;;;;;;4.53;3.00;;;;;;;4.73;100.00;96921.97;4952138;28;102729;-69
2023/01/10 11:01:23;;;;;;;5.87;3.10;;;;;;;4.80;100.00;96914.91;4950660;28;101865;-69
2023/01/10 11:03:55;;;;;;;3.80;2.47;;;;;;;4.75;100.00;96920.75;4950727;28;105283;-69
2023/01/10 11:06:27;;;;;;;4.87;2.57;;;;;;;4.85;100.00;96910.63;4953535;28;105426;-69
2023/01/10 11:08:59;;;;;;;4.70;2.30;;;;;;;5.02;100.00;96921.59;4951294;28;102565;-69
2023/01/10 11:11:32;;;;;;;5.70;2.17;;;;;;;5.06;100.00;96914.91;4950109;28;105733;-69
2023/01/10 11:14:01;;;;;;;6.37;3.10;;;;;;;5.17;100.00;96911.66;4950796;28;102155;-69
2023/01/10 11:16:31;;;;;;;3.50;2.60;;;;;;;5.34;100.00;96918.16;4950500;28;105516;-68
2023/01/10 11:19:19;;;;;;;3.93;2.37;;;;;;;5.45;100.00;96918.31;4949991;28;106028;-68
2023/01/10 11:21:49;;;;;;;4.80;2.20;;;;;;;5.32;100.00;96912.25;4950402;28;101808;-68
2023/01/10 11:24:23;;;;;;;3.53;2.23;;;;;;;5.34;100.00;96910.25;4950494;28;104345;-68
2023/01/10 11:26:52;;;;;;;3.50;1.70;;;;;;;5.20;100.00;96908.63;4951292;28;103295;-68
2023/01/10 11:29:22;;;;;;;4.67;1.70;;;;;;;5.29;100.00;96902.91;4953724;28;101851;-68
2023/01/10 11:31:50;;;;;;;2.83;1.47;;;;;;;5.37;100.00;96910.63;4950913;28;103090;-68
2023/01/10 11:34:22;;;;;;;3.43;1.50;;;;;;;5.42;100.00;96917.91;4949854;28;101827;-68
2023/01/10 11:36:55;;;;;;;2.33;1.60;;;;;;;5.47;100.00;96899.66;4950337;28;105405;-68
2023/01/10 11:39:25;;;;;;;4.90;1.60;;;;;;;5.64;100.00;96904.28;4949537;28;105697;-68
2023/01/10 11:41:54;;;;;;;4.43;1.50;;;;;;;5.97;100.00;96907.66;4950162;28;101920;-68
2023/01/10 11:44:24;;;;;;;3.77;1.40;;;;;;;6.18;100.00;96906.56;4951493;28;102937;-69
2023/01/10 11:46:55;;;;;;;2.90;1.40;;;;;;;6.30;100.00;96902.22;4949493;28;106394;-69